Ana Sayfa
METAR-TAF:

METAR-TAF

Havaalanları :

Sakız Adası, Yunanistan

Enlem: 38-20N, Boylam: 026-08E, yükseklik: 5 m

Güncel hava durumu gözlemi

Rapor saat 07:50 UTC de 1 saat ve 6 dakika önce yapıldı.
Rüzgar kuzeydan 14 kt
Sıcaklık 19°C
Nem 68%
Basınç 1016 hPa
Görüş mesafesi 10 km veya daha fazla
2000 ft yükseklikte az bulutlu

METAR: LGHI 220750Z 01014KT 9999 FEW020 19/13 Q1016

Saat: 11:56 (08:56 UTC)

Tahmin

Rapor saat 08:00 UTC de 56 dakika önce yapıldı.
Ayın 22'si saat 09 UTC'den ayın 22'si saat 18 UTC'ye kadar geçerli Tahmin
Rüzgar kuzeydan 18 kt
Görüş mesafesi 10 km veya daha fazla
1800 ft yükseklikte az bulutlu

TAF: LGHI 220800Z 2209/2218 01018KT 9999 FEW018

4.000'den fazla havaalanı için hava durumu gözlemleri ve tahminleri (METAR ve TAF raporları).

Kullanılabilir istasyonlar harita üzerinde sarı ve kırmızı noktalarla gösterilir.

İstasyonun adını görmek için fareyi noktanın üzerinde gezdirin.

Sonrasında hava gözlem ve tahminlerini görmek için tıklayın.

Haritayı değiştirmek için: yaklaştırmak için siyah artı işaretli yeşil düğmeye ve uzaklaştırmak için de eksi işaretli düğmeye hızla tıklayın; bitişik haritalar için yeşil okları kullanın.


METAR-TAF: